sensor_id;sensor_type;location;lat;lon;timestamp;P1;durP1;ratioP1;P2;durP2;ratioP2
63050;SDS011;49136;47.416;19.402;2023-04-03T00:00:25;2.20;;;0.70;;
63050;SDS011;49136;47.416;19.402;2023-04-03T00:02:50;0.93;;;0.70;;
63050;SDS011;49136;47.416;19.402;2023-04-03T00:05:16;4.93;;;1.02;;
63050;SDS011;49136;47.416;19.402;2023-04-03T00:07:41;1.95;;;1.17;;
63050;SDS011;49136;47.416;19.402;2023-04-03T00:10:07;2.00;;;1.00;;
63050;SDS011;49136;47.416;19.402;2023-04-03T00:12:33;4.32;;;1.58;;
63050;SDS011;49136;47.416;19.402;2023-04-03T00:14:58;6.90;;;2.33;;
63050;SDS011;49136;47.416;19.402;2023-04-03T00:17:24;2.97;;;1.40;;
63050;SDS011;49136;47.416;19.402;2023-04-03T00:19:50;2.70;;;1.40;;
63050;SDS011;49136;47.416;19.402;2023-04-03T00:22:15;3.00;;;1.50;;
63050;SDS011;49136;47.416;19.402;2023-04-03T00:24:41;8.45;;;3.60;;
63050;SDS011;49136;47.416;19.402;2023-04-03T00:27:06;6.70;;;2.72;;
63050;SDS011;49136;47.416;19.402;2023-04-03T00:29:32;7.90;;;2.83;;
63050;SDS011;49136;47.416;19.402;2023-04-03T00:31:57;8.38;;;3.08;;
63050;SDS011;49136;47.416;19.402;2023-04-03T00:34:23;5.75;;;2.90;;
63050;SDS011;49136;47.416;19.402;2023-04-03T00:36:48;7.38;;;2.90;;
63050;SDS011;49136;47.416;19.402;2023-04-03T00:39:14;5.32;;;2.40;;
63050;SDS011;49136;47.416;19.402;2023-04-03T00:41:40;2.90;;;2.17;;
63050;SDS011;49136;47.416;19.402;2023-04-03T00:46:52;5.72;;;2.17;;
63050;SDS011;49136;47.416;19.402;2023-04-03T00:49:18;4.40;;;2.58;;
63050;SDS011;49136;47.416;19.402;2023-04-03T00:51:43;9.32;;;3.78;;
63050;SDS011;49136;47.416;19.402;2023-04-03T00:54:09;11.13;;;3.40;;
63050;SDS011;49136;47.416;19.402;2023-04-03T00:56:35;4.82;;;2.78;;
63050;SDS011;49136;47.416;19.402;2023-04-03T00:59:03;5.88;;;2.67;;
63050;SDS011;49136;47.416;19.402;2023-04-03T01:01:32;4.90;;;2.95;;
63050;SDS011;49136;47.416;19.402;2023-04-03T01:03:59;6.50;;;3.50;;
63050;SDS011;49136;47.416;19.402;2023-04-03T01:06:26;7.22;;;2.58;;
63050;SDS011;49136;47.416;19.402;2023-04-03T01:08:55;5.32;;;2.78;;
63050;SDS011;49136;47.416;19.402;2023-04-03T01:11:21;10.05;;;3.88;;
63050;SDS011;49136;47.416;19.402;2023-04-03T01:13:47;8.45;;;3.38;;
63050;SDS011;49136;47.416;19.402;2023-04-03T01:16:14;7.55;;;3.20;;
63050;SDS011;49136;47.416;19.402;2023-04-03T01:18:40;15.38;;;4.63;;
63050;SDS011;49136;47.416;19.402;2023-04-03T01:26:15;8.93;;;2.88;;
63050;SDS011;49136;47.416;19.402;2023-04-03T01:28:41;9.13;;;3.85;;
63050;SDS011;49136;47.416;19.402;2023-04-03T01:31:31;14.27;;;4.43;;
63050;SDS011;49136;47.416;19.402;2023-04-03T01:33:57;7.68;;;3.65;;
63050;SDS011;49136;47.416;19.402;2023-04-03T01:36:23;8.30;;;3.28;;
63050;SDS011;49136;47.416;19.402;2023-04-03T01:38:51;8.32;;;3.58;;
63050;SDS011;49136;47.416;19.402;2023-04-03T01:41:18;6.43;;;2.72;;
63050;SDS011;49136;47.416;19.402;2023-04-03T01:43:44;7.43;;;3.42;;
63050;SDS011;49136;47.416;19.402;2023-04-03T01:46:09;7.63;;;3.03;;
63050;SDS011;49136;47.416;19.402;2023-04-03T01:48:35;10.48;;;4.05;;
63050;SDS011;49136;47.416;19.402;2023-04-03T01:51:01;12.23;;;3.80;;
63050;SDS011;49136;47.416;19.402;2023-04-03T01:53:26;5.80;;;2.83;;
63050;SDS011;49136;47.416;19.402;2023-04-03T01:55:52;7.50;;;3.05;;
63050;SDS011;49136;47.416;19.402;2023-04-03T01:58:17;7.50;;;2.85;;
63050;SDS011;49136;47.416;19.402;2023-04-03T02:00:43;6.20;;;3.40;;
63050;SDS011;49136;47.416;19.402;2023-04-03T02:03:08;5.60;;;2.78;;
63050;SDS011;49136;47.416;19.402;2023-04-03T02:05:34;7.90;;;3.00;;
63050;SDS011;49136;47.416;19.402;2023-04-03T02:08:00;9.70;;;2.67;;
63050;SDS011;49136;47.416;19.402;2023-04-03T02:10:26;13.50;;;4.28;;
63050;SDS011;49136;47.416;19.402;2023-04-03T02:12:51;9.05;;;2.90;;
63050;SDS011;49136;47.416;19.402;2023-04-03T02:15:17;7.93;;;3.90;;
63050;SDS011;49136;47.416;19.402;2023-04-03T02:17:43;5.28;;;2.13;;
63050;SDS011;49136;47.416;19.402;2023-04-03T02:20:09;9.25;;;2.97;;
63050;SDS011;49136;47.416;19.402;2023-04-03T02:22:35;6.32;;;2.75;;
63050;SDS011;49136;47.416;19.402;2023-04-03T02:25:00;6.55;;;3.53;;
63050;SDS011;49136;47.416;19.402;2023-04-03T02:27:26;7.10;;;3.33;;
63050;SDS011;49136;47.416;19.402;2023-04-03T02:29:52;8.88;;;3.65;;
63050;SDS011;49136;47.416;19.402;2023-04-03T02:32:17;4.70;;;2.63;;
63050;SDS011;49136;47.416;19.402;2023-04-03T02:34:43;7.60;;;3.65;;
63050;SDS011;49136;47.416;19.402;2023-04-03T02:37:08;6.72;;;2.08;;
63050;SDS011;49136;47.416;19.402;2023-04-03T02:39:34;9.55;;;2.85;;
63050;SDS011;49136;47.416;19.402;2023-04-03T02:42:00;5.35;;;2.75;;
63050;SDS011;49136;47.416;19.402;2023-04-03T02:44:25;14.25;;;3.28;;
63050;SDS011;49136;47.416;19.402;2023-04-03T02:46:50;10.38;;;2.35;;
63050;SDS011;49136;47.416;19.402;2023-04-03T02:49:16;7.13;;;3.47;;
63050;SDS011;49136;47.416;19.402;2023-04-03T02:51:42;8.32;;;3.92;;
63050;SDS011;49136;47.416;19.402;2023-04-03T02:54:07;6.68;;;2.17;;
63050;SDS011;49136;47.416;19.402;2023-04-03T02:56:33;12.38;;;3.30;;
63050;SDS011;49136;47.416;19.402;2023-04-03T02:58:58;7.43;;;3.00;;
63050;SDS011;49136;47.416;19.402;2023-04-03T03:01:24;6.28;;;2.50;;
63050;SDS011;49136;47.416;19.402;2023-04-03T03:03:49;5.60;;;2.75;;
63050;SDS011;49136;47.416;19.402;2023-04-03T03:06:15;5.30;;;3.55;;
63050;SDS011;49136;47.416;19.402;2023-04-03T03:08:42;9.43;;;3.22;;
63050;SDS011;49136;47.416;19.402;2023-04-03T03:11:08;6.05;;;3.30;;
63050;SDS011;49136;47.416;19.402;2023-04-03T03:13:37;4.88;;;3.08;;
63050;SDS011;49136;47.416;19.402;2023-04-03T03:16:02;6.60;;;3.75;;
63050;SDS011;49136;47.416;19.402;2023-04-03T03:18:28;4.05;;;2.20;;
63050;SDS011;49136;47.416;19.402;2023-04-03T03:20:55;11.40;;;4.35;;
63050;SDS011;49136;47.416;19.402;2023-04-03T03:23:23;4.45;;;3.38;;
63050;SDS011;49136;47.416;19.402;2023-04-03T03:25:54;6.65;;;2.53;;
63050;SDS011;49136;47.416;19.402;2023-04-03T03:28:21;10.27;;;4.20;;
63050;SDS011;49136;47.416;19.402;2023-04-03T03:30:46;5.32;;;2.35;;
63050;SDS011;49136;47.416;19.402;2023-04-03T03:33:12;5.57;;;3.05;;
63050;SDS011;49136;47.416;19.402;2023-04-03T03:35:37;12.90;;;3.03;;
63050;SDS011;49136;47.416;19.402;2023-04-03T03:38:03;7.97;;;3.42;;
63050;SDS011;49136;47.416;19.402;2023-04-03T03:40:28;7.32;;;3.03;;
63050;SDS011;49136;47.416;19.402;2023-04-03T03:42:53;6.80;;;3.10;;
63050;SDS011;49136;47.416;19.402;2023-04-03T03:45:19;7.05;;;3.22;;
63050;SDS011;49136;47.416;19.402;2023-04-03T03:47:44;7.63;;;4.57;;
63050;SDS011;49136;47.416;19.402;2023-04-03T03:50:10;11.93;;;3.95;;
63050;SDS011;49136;47.416;19.402;2023-04-03T03:52:36;5.80;;;2.90;;
63050;SDS011;49136;47.416;19.402;2023-04-03T03:55:01;7.22;;;2.78;;
63050;SDS011;49136;47.416;19.402;2023-04-03T03:57:27;13.07;;;4.30;;
63050;SDS011;49136;47.416;19.402;2023-04-03T03:59:53;6.32;;;2.40;;
63050;SDS011;49136;47.416;19.402;2023-04-03T04:02:19;15.20;;;3.53;;
63050;SDS011;49136;47.416;19.402;2023-04-03T04:04:45;7.93;;;4.20;;
63050;SDS011;49136;47.416;19.402;2023-04-03T04:07:11;6.45;;;2.80;;
63050;SDS011;49136;47.416;19.402;2023-04-03T04:09:36;6.63;;;2.55;;
63050;SDS011;49136;47.416;19.402;2023-04-03T04:12:02;9.52;;;4.53;;
63050;SDS011;49136;47.416;19.402;2023-04-03T04:14:27;5.90;;;3.00;;
63050;SDS011;49136;47.416;19.402;2023-04-03T04:16:53;10.10;;;2.88;;
63050;SDS011;49136;47.416;19.402;2023-04-03T04:19:18;2.58;;;1.58;;
63050;SDS011;49136;47.416;19.402;2023-04-03T04:21:44;6.40;;;3.03;;
63050;SDS011;49136;47.416;19.402;2023-04-03T04:24:09;5.20;;;2.97;;
63050;SDS011;49136;47.416;19.402;2023-04-03T04:26:35;6.53;;;2.60;;
63050;SDS011;49136;47.416;19.402;2023-04-03T04:29:00;13.07;;;3.33;;
63050;SDS011;49136;47.416;19.402;2023-04-03T04:31:26;10.30;;;3.20;;
63050;SDS011;49136;47.416;19.402;2023-04-03T04:33:52;4.63;;;3.03;;
63050;SDS011;49136;47.416;19.402;2023-04-03T04:36:18;7.82;;;2.38;;
63050;SDS011;49136;47.416;19.402;2023-04-03T04:38:43;5.53;;;1.92;;
63050;SDS011;49136;47.416;19.402;2023-04-03T04:41:09;2.83;;;1.98;;
63050;SDS011;49136;47.416;19.402;2023-04-03T04:43:35;4.13;;;2.20;;
63050;SDS011;49136;47.416;19.402;2023-04-03T04:46:04;15.02;;;2.80;;
63050;SDS011;49136;47.416;19.402;2023-04-03T04:48:31;5.47;;;2.03;;
63050;SDS011;49136;47.416;19.402;2023-04-03T04:50:57;3.83;;;1.67;;
63050;SDS011;49136;47.416;19.402;2023-04-03T04:53:24;8.82;;;2.67;;
63050;SDS011;49136;47.416;19.402;2023-04-03T04:55:51;4.75;;;2.28;;
63050;SDS011;49136;47.416;19.402;2023-04-03T04:58:17;7.63;;;3.03;;
63050;SDS011;49136;47.416;19.402;2023-04-03T05:00:43;10.30;;;1.90;;
63050;SDS011;49136;47.416;19.402;2023-04-03T05:03:08;2.88;;;1.75;;
63050;SDS011;49136;47.416;19.402;2023-04-03T05:05:34;6.15;;;2.75;;
63050;SDS011;49136;47.416;19.402;2023-04-03T05:08:00;4.32;;;2.15;;
63050;SDS011;49136;47.416;19.402;2023-04-03T05:10:26;3.65;;;2.28;;
63050;SDS011;49136;47.416;19.402;2023-04-03T05:12:51;8.40;;;2.15;;
63050;SDS011;49136;47.416;19.402;2023-04-03T05:15:17;8.65;;;2.60;;
63050;SDS011;49136;47.416;19.402;2023-04-03T05:17:42;3.80;;;2.20;;
63050;SDS011;49136;47.416;19.402;2023-04-03T05:20:08;4.18;;;1.77;;
63050;SDS011;49136;47.416;19.402;2023-04-03T05:22:34;7.18;;;3.15;;
63050;SDS011;49136;47.416;19.402;2023-04-03T05:24:59;6.85;;;3.03;;
63050;SDS011;49136;47.416;19.402;2023-04-03T05:27:25;14.32;;;3.63;;
63050;SDS011;49136;47.416;19.402;2023-04-03T05:29:53;10.30;;;4.18;;
63050;SDS011;49136;47.416;19.402;2023-04-03T05:32:18;8.00;;;4.25;;
63050;SDS011;49136;47.416;19.402;2023-04-03T05:34:44;6.95;;;3.28;;
63050;SDS011;49136;47.416;19.402;2023-04-03T05:37:09;8.57;;;3.40;;
63050;SDS011;49136;47.416;19.402;2023-04-03T05:39:35;5.85;;;2.85;;
63050;SDS011;49136;47.416;19.402;2023-04-03T05:42:01;11.13;;;3.92;;
63050;SDS011;49136;47.416;19.402;2023-04-03T05:44:26;4.60;;;2.42;;
63050;SDS011;49136;47.416;19.402;2023-04-03T05:46:51;4.38;;;2.45;;
63050;SDS011;49136;47.416;19.402;2023-04-03T05:49:17;4.38;;;2.47;;
63050;SDS011;49136;47.416;19.402;2023-04-03T05:51:42;4.43;;;2.80;;
63050;SDS011;49136;47.416;19.402;2023-04-03T05:54:17;6.82;;;1.85;;
63050;SDS011;49136;47.416;19.402;2023-04-03T05:56:45;5.40;;;2.35;;
63050;SDS011;49136;47.416;19.402;2023-04-03T05:59:11;4.75;;;1.85;;
63050;SDS011;49136;47.416;19.402;2023-04-03T06:01:37;5.18;;;2.83;;
63050;SDS011;49136;47.416;19.402;2023-04-03T06:04:02;7.78;;;2.90;;
63050;SDS011;49136;47.416;19.402;2023-04-03T06:06:44;4.18;;;2.75;;
63050;SDS011;49136;47.416;19.402;2023-04-03T06:09:10;3.35;;;1.90;;
63050;SDS011;49136;47.416;19.402;2023-04-03T06:11:36;8.52;;;3.90;;
63050;SDS011;49136;47.416;19.402;2023-04-03T06:14:02;7.07;;;1.52;;
63050;SDS011;49136;47.416;19.402;2023-04-03T06:16:28;4.78;;;2.25;;
63050;SDS011;49136;47.416;19.402;2023-04-03T06:18:54;7.22;;;2.92;;
63050;SDS011;49136;47.416;19.402;2023-04-03T06:21:20;7.65;;;2.33;;
63050;SDS011;49136;47.416;19.402;2023-04-03T06:23:45;4.13;;;1.63;;
63050;SDS011;49136;47.416;19.402;2023-04-03T06:26:11;3.90;;;2.03;;
63050;SDS011;49136;47.416;19.402;2023-04-03T06:28:36;2.72;;;1.60;;
63050;SDS011;49136;47.416;19.402;2023-04-03T06:31:02;4.13;;;2.38;;
63050;SDS011;49136;47.416;19.402;2023-04-03T06:33:28;5.55;;;1.75;;
63050;SDS011;49136;47.416;19.402;2023-04-03T06:35:57;3.47;;;1.63;;
63050;SDS011;49136;47.416;19.402;2023-04-03T06:38:23;5.03;;;2.58;;
63050;SDS011;49136;47.416;19.402;2023-04-03T06:40:49;3.60;;;2.33;;
63050;SDS011;49136;47.416;19.402;2023-04-03T06:43:14;5.63;;;2.55;;
63050;SDS011;49136;47.416;19.402;2023-04-03T06:45:40;2.72;;;1.73;;
63050;SDS011;49136;47.416;19.402;2023-04-03T06:48:05;6.05;;;3.05;;
63050;SDS011;49136;47.416;19.402;2023-04-03T06:50:31;2.70;;;1.70;;
63050;SDS011;49136;47.416;19.402;2023-04-03T06:52:56;7.95;;;2.88;;
63050;SDS011;49136;47.416;19.402;2023-04-03T06:55:22;3.92;;;2.33;;
63050;SDS011;49136;47.416;19.402;2023-04-03T06:57:47;6.22;;;2.67;;
63050;SDS011;49136;47.416;19.402;2023-04-03T07:00:13;8.32;;;3.13;;
63050;SDS011;49136;47.416;19.402;2023-04-03T07:02:39;6.00;;;1.85;;
63050;SDS011;49136;47.416;19.402;2023-04-03T07:05:05;3.67;;;1.85;;
63050;SDS011;49136;47.416;19.402;2023-04-03T07:07:31;4.45;;;2.30;;
63050;SDS011;49136;47.416;19.402;2023-04-03T07:09:58;4.57;;;2.78;;
63050;SDS011;49136;47.416;19.402;2023-04-03T07:12:24;6.13;;;2.53;;
63050;SDS011;49136;47.416;19.402;2023-04-03T07:14:50;3.22;;;1.77;;
63050;SDS011;49136;47.416;19.402;2023-04-03T07:17:15;7.15;;;2.88;;
63050;SDS011;49136;47.416;19.402;2023-04-03T07:19:41;10.23;;;3.13;;
63050;SDS011;49136;47.416;19.402;2023-04-03T07:22:06;4.30;;;1.85;;
63050;SDS011;49136;47.416;19.402;2023-04-03T07:24:32;3.85;;;1.60;;
63050;SDS011;49136;47.416;19.402;2023-04-03T07:26:58;5.97;;;2.17;;
63050;SDS011;49136;47.416;19.402;2023-04-03T07:29:23;4.47;;;2.08;;
63050;SDS011;49136;47.416;19.402;2023-04-03T07:31:49;3.45;;;1.50;;
63050;SDS011;49136;47.416;19.402;2023-04-03T07:34:14;4.25;;;1.50;;
63050;SDS011;49136;47.416;19.402;2023-04-03T07:36:40;6.25;;;1.98;;
63050;SDS011;49136;47.416;19.402;2023-04-03T07:39:06;1.90;;;1.10;;
63050;SDS011;49136;47.416;19.402;2023-04-03T07:41:33;3.00;;;1.67;;
63050;SDS011;49136;47.416;19.402;2023-04-03T07:43:59;7.10;;;2.35;;
63050;SDS011;49136;47.416;19.402;2023-04-03T07:46:24;1.63;;;1.33;;
63050;SDS011;49136;47.416;19.402;2023-04-03T07:48:51;5.45;;;1.92;;
63050;SDS011;49136;47.416;19.402;2023-04-03T07:51:16;2.95;;;1.52;;
63050;SDS011;49136;47.416;19.402;2023-04-03T07:53:42;6.10;;;2.65;;
63050;SDS011;49136;47.416;19.402;2023-04-03T07:56:08;2.60;;;1.38;;
63050;SDS011;49136;47.416;19.402;2023-04-03T07:58:34;5.43;;;1.50;;
63050;SDS011;49136;47.416;19.402;2023-04-03T08:00:59;4.40;;;1.52;;
63050;SDS011;49136;47.416;19.402;2023-04-03T08:03:25;3.20;;;1.27;;
63050;SDS011;49136;47.416;19.402;2023-04-03T08:05:50;3.92;;;1.98;;
63050;SDS011;49136;47.416;19.402;2023-04-03T08:08:17;2.80;;;1.95;;
63050;SDS011;49136;47.416;19.402;2023-04-03T08:10:47;3.30;;;1.63;;
63050;SDS011;49136;47.416;19.402;2023-04-03T08:13:17;2.58;;;1.52;;
63050;SDS011;49136;47.416;19.402;2023-04-03T08:15:43;2.78;;;0.85;;
63050;SDS011;49136;47.416;19.402;2023-04-03T08:18:08;5.95;;;2.35;;
63050;SDS011;49136;47.416;19.402;2023-04-03T08:20:34;3.65;;;1.58;;
63050;SDS011;49136;47.416;19.402;2023-04-03T08:23:00;4.30;;;2.13;;
63050;SDS011;49136;47.416;19.402;2023-04-03T08:25:25;5.47;;;1.88;;
63050;SDS011;49136;47.416;19.402;2023-04-03T08:27:51;4.85;;;1.80;;
63050;SDS011;49136;47.416;19.402;2023-04-03T08:30:16;3.53;;;1.40;;
63050;SDS011;49136;47.416;19.402;2023-04-03T08:32:42;2.65;;;1.40;;
63050;SDS011;49136;47.416;19.402;2023-04-03T08:35:09;3.53;;;1.73;;
63050;SDS011;49136;47.416;19.402;2023-04-03T08:37:35;3.63;;;1.52;;
63050;SDS011;49136;47.416;19.402;2023-04-03T08:40:02;3.40;;;1.10;;
63050;SDS011;49136;47.416;19.402;2023-04-03T08:45:13;1.38;;;0.80;;
63050;SDS011;49136;47.416;19.402;2023-04-03T08:50:19;3.72;;;1.90;;
63050;SDS011;49136;47.416;19.402;2023-04-03T08:52:52;2.30;;;1.50;;
63050;SDS011;49136;47.416;19.402;2023-04-03T08:55:28;2.78;;;1.60;;
63050;SDS011;49136;47.416;19.402;2023-04-03T08:58:05;2.58;;;1.20;;
63050;SDS011;49136;47.416;19.402;2023-04-03T09:00:46;2.90;;;1.73;;
63050;SDS011;49136;47.416;19.402;2023-04-03T09:03:20;2.67;;;1.58;;
63050;SDS011;49136;47.416;19.402;2023-04-03T09:05:48;6.80;;;2.53;;
63050;SDS011;49136;47.416;19.402;2023-04-03T09:14:04;3.75;;;1.15;;
63050;SDS011;49136;47.416;19.402;2023-04-03T09:21:46;3.63;;;1.60;;
63050;SDS011;49136;47.416;19.402;2023-04-03T09:24:12;1.80;;;0.93;;
63050;SDS011;49136;47.416;19.402;2023-04-03T09:29:16;1.23;;;1.00;;
63050;SDS011;49136;47.416;19.402;2023-04-03T09:31:44;3.55;;;1.40;;
63050;SDS011;49136;47.416;19.402;2023-04-03T09:34:26;5.47;;;2.25;;
63050;SDS011;49136;47.416;19.402;2023-04-03T09:36:53;4.70;;;1.55;;
63050;SDS011;49136;47.416;19.402;2023-04-03T09:39:29;2.22;;;1.20;;
63050;SDS011;49136;47.416;19.402;2023-04-03T09:44:23;5.05;;;1.58;;
63050;SDS011;49136;47.416;19.402;2023-04-03T09:46:51;5.63;;;1.90;;
63050;SDS011;49136;47.416;19.402;2023-04-03T09:49:16;2.08;;;0.80;;
63050;SDS011;49136;47.416;19.402;2023-04-03T09:51:42;1.67;;;1.00;;
63050;SDS011;49136;47.416;19.402;2023-04-03T09:57:23;1.85;;;1.05;;
63050;SDS011;49136;47.416;19.402;2023-04-03T09:59:58;1.92;;;0.80;;
63050;SDS011;49136;47.416;19.402;2023-04-03T10:02:35;8.25;;;1.30;;
63050;SDS011;49136;47.416;19.402;2023-04-03T10:05:05;3.40;;;1.55;;
63050;SDS011;49136;47.416;19.402;2023-04-03T10:10:38;1.20;;;0.85;;
63050;SDS011;49136;47.416;19.402;2023-04-03T10:13:18;1.45;;;0.90;;
63050;SDS011;49136;47.416;19.402;2023-04-03T10:18:38;1.15;;;0.63;;
63050;SDS011;49136;47.416;19.402;2023-04-03T10:52:47;3.10;;;1.38;;
63050;SDS011;49136;47.416;19.402;2023-04-03T10:58:02;2.25;;;1.00;;
63050;SDS011;49136;47.416;19.402;2023-04-03T11:03:39;3.28;;;1.17;;
63050;SDS011;49136;47.416;19.402;2023-04-03T11:06:08;1.55;;;1.05;;
63050;SDS011;49136;47.416;19.402;2023-04-03T11:08:48;2.95;;;1.50;;
63050;SDS011;49136;47.416;19.402;2023-04-03T11:11:17;3.67;;;1.17;;
63050;SDS011;49136;47.416;19.402;2023-04-03T11:13:55;3.63;;;1.25;;
63050;SDS011;49136;47.416;19.402;2023-04-03T11:16:30;4.07;;;1.20;;
63050;SDS011;49136;47.416;19.402;2023-04-03T11:19:05;1.58;;;0.95;;
63050;SDS011;49136;47.416;19.402;2023-04-03T11:21:41;1.27;;;0.57;;
63050;SDS011;49136;47.416;19.402;2023-04-03T11:24:15;3.42;;;1.33;;
63050;SDS011;49136;47.416;19.402;2023-04-03T11:26:47;4.70;;;1.30;;
63050;SDS011;49136;47.416;19.402;2023-04-03T11:29:18;3.42;;;1.15;;
63050;SDS011;49136;47.416;19.402;2023-04-03T11:34:33;3.40;;;1.15;;
63050;SDS011;49136;47.416;19.402;2023-04-03T11:37:06;1.83;;;0.80;;
63050;SDS011;49136;47.416;19.402;2023-04-03T11:39:54;2.15;;;1.17;;
63050;SDS011;49136;47.416;19.402;2023-04-03T11:42:24;2.15;;;0.93;;
63050;SDS011;49136;47.416;19.402;2023-04-03T11:45:15;0.70;;;0.60;;
63050;SDS011;49136;47.416;19.402;2023-04-03T11:47:53;2.33;;;1.10;;
63050;SDS011;49136;47.416;19.402;2023-04-03T11:50:31;1.42;;;1.08;;
63050;SDS011;49136;47.416;19.402;2023-04-03T11:52:57;3.25;;;1.35;;
63050;SDS011;49136;47.416;19.402;2023-04-03T12:16:23;0.98;;;0.82;;
63050;SDS011;49136;47.416;19.402;2023-04-03T12:21:18;1.33;;;1.05;;
63050;SDS011;49136;47.416;19.402;2023-04-03T12:23:58;2.67;;;1.27;;
63050;SDS011;49136;47.416;19.402;2023-04-03T12:26:26;2.00;;;1.13;;
63050;SDS011;49136;47.416;19.402;2023-04-03T12:28:55;3.05;;;1.42;;
63050;SDS011;49136;47.416;19.402;2023-04-03T12:31:21;2.50;;;1.27;;
63050;SDS011;49136;47.416;19.402;2023-04-03T12:34:01;1.35;;;0.88;;
63050;SDS011;49136;47.416;19.402;2023-04-03T12:36:58;7.40;;;1.90;;
63050;SDS011;49136;47.416;19.402;2023-04-03T12:39:38;4.60;;;1.30;;
63050;SDS011;49136;47.416;19.402;2023-04-03T12:45:22;1.58;;;1.10;;
63050;SDS011;49136;47.416;19.402;2023-04-03T12:47:52;1.45;;;0.80;;
63050;SDS011;49136;47.416;19.402;2023-04-03T12:52:51;1.17;;;0.77;;
63050;SDS011;49136;47.416;19.402;2023-04-03T12:55:22;1.33;;;0.80;;
63050;SDS011;49136;47.416;19.402;2023-04-03T12:57:48;5.43;;;1.45;;
63050;SDS011;49136;47.416;19.402;2023-04-03T13:00:21;1.48;;;0.88;;
63050;SDS011;49136;47.416;19.402;2023-04-03T13:02:47;3.53;;;1.25;;
63050;SDS011;49136;47.416;19.402;2023-04-03T13:05:15;6.18;;;3.17;;
63050;SDS011;49136;47.416;19.402;2023-04-03T13:07:43;4.88;;;3.03;;
63050;SDS011;49136;47.416;19.402;2023-04-03T13:12:35;3.17;;;2.10;;
63050;SDS011;49136;47.416;19.402;2023-04-03T13:15:28;3.25;;;1.98;;
63050;SDS011;49136;47.416;19.402;2023-04-03T13:18:04;5.85;;;2.33;;
63050;SDS011;49136;47.416;19.402;2023-04-03T13:20:31;3.95;;;1.65;;
63050;SDS011;49136;47.416;19.402;2023-04-03T13:23:07;2.80;;;2.00;;
63050;SDS011;49136;47.416;19.402;2023-04-03T13:25:37;2.15;;;1.30;;
63050;SDS011;49136;47.416;19.402;2023-04-03T13:30:38;0.60;;;0.50;;
63050;SDS011;49136;47.416;19.402;2023-04-03T13:33:06;4.50;;;0.90;;
63050;SDS011;49136;47.416;19.402;2023-04-03T13:35:46;1.75;;;0.77;;
63050;SDS011;49136;47.416;19.402;2023-04-03T13:40:54;6.28;;;1.25;;
63050;SDS011;49136;47.416;19.402;2023-04-03T13:43:25;2.63;;;0.90;;
63050;SDS011;49136;47.416;19.402;2023-04-03T13:45:54;0.85;;;0.77;;
63050;SDS011;49136;47.416;19.402;2023-04-03T13:48:22;4.32;;;1.30;;
63050;SDS011;49136;47.416;19.402;2023-04-03T13:50:52;3.85;;;1.58;;
63050;SDS011;49136;47.416;19.402;2023-04-03T13:53:30;1.55;;;0.90;;
63050;SDS011;49136;47.416;19.402;2023-04-03T13:56:05;0.68;;;0.60;;
63050;SDS011;49136;47.416;19.402;2023-04-03T13:58:34;2.40;;;1.30;;
63050;SDS011;49136;47.416;19.402;2023-04-03T14:01:19;2.05;;;0.70;;
63050;SDS011;49136;47.416;19.402;2023-04-03T14:03:51;5.90;;;2.47;;
63050;SDS011;49136;47.416;19.402;2023-04-03T14:06:19;1.58;;;0.70;;
63050;SDS011;49136;47.416;19.402;2023-04-03T14:08:45;2.85;;;0.77;;
63050;SDS011;49136;47.416;19.402;2023-04-03T14:11:22;3.38;;;1.23;;
63050;SDS011;49136;47.416;19.402;2023-04-03T14:13:53;6.05;;;1.95;;
63050;SDS011;49136;47.416;19.402;2023-04-03T14:16:23;8.27;;;2.08;;
63050;SDS011;49136;47.416;19.402;2023-04-03T14:18:52;3.58;;;1.88;;
63050;SDS011;49136;47.416;19.402;2023-04-03T14:21:19;4.90;;;2.35;;
63050;SDS011;49136;47.416;19.402;2023-04-03T14:23:46;2.38;;;0.90;;
63050;SDS011;49136;47.416;19.402;2023-04-03T14:26:15;12.02;;;3.13;;
63050;SDS011;49136;47.416;19.402;2023-04-03T14:28:43;8.77;;;2.20;;
63050;SDS011;49136;47.416;19.402;2023-04-03T14:31:12;4.68;;;1.17;;
63050;SDS011;49136;47.416;19.402;2023-04-03T14:33:39;6.65;;;3.03;;
63050;SDS011;49136;47.416;19.402;2023-04-03T14:36:15;5.70;;;1.52;;
63050;SDS011;49136;47.416;19.402;2023-04-03T14:38:46;11.32;;;1.67;;
63050;SDS011;49136;47.416;19.402;2023-04-03T14:41:13;20.33;;;3.22;;
63050;SDS011;49136;47.416;19.402;2023-04-03T14:43:39;7.65;;;1.98;;
63050;SDS011;49136;47.416;19.402;2023-04-03T14:46:08;6.72;;;2.28;;
63050;SDS011;49136;47.416;19.402;2023-04-03T14:48:41;8.93;;;3.10;;
63050;SDS011;49136;47.416;19.402;2023-04-03T14:51:08;4.25;;;2.47;;
63050;SDS011;49136;47.416;19.402;2023-04-03T14:53:36;4.20;;;2.10;;
63050;SDS011;49136;47.416;19.402;2023-04-03T14:56:02;1.15;;;0.85;;
63050;SDS011;49136;47.416;19.402;2023-04-03T14:58:27;0.80;;;0.80;;
63050;SDS011;49136;47.416;19.402;2023-04-03T15:00:53;0.85;;;0.60;;
63050;SDS011;49136;47.416;19.402;2023-04-03T15:03:21;3.63;;;1.33;;
63050;SDS011;49136;47.416;19.402;2023-04-03T15:05:48;0.95;;;0.52;;
63050;SDS011;49136;47.416;19.402;2023-04-03T15:08:21;3.30;;;2.05;;
63050;SDS011;49136;47.416;19.402;2023-04-03T15:10:49;3.25;;;1.58;;
63050;SDS011;49136;47.416;19.402;2023-04-03T15:13:15;4.00;;;1.95;;
63050;SDS011;49136;47.416;19.402;2023-04-03T15:15:40;1.30;;;1.00;;
63050;SDS011;49136;47.416;19.402;2023-04-03T15:18:06;1.08;;;0.98;;
63050;SDS011;49136;47.416;19.402;2023-04-03T15:20:40;2.25;;;1.50;;
63050;SDS011;49136;47.416;19.402;2023-04-03T15:23:05;2.30;;;1.60;;
63050;SDS011;49136;47.416;19.402;2023-04-03T15:25:31;2.35;;;1.25;;
63050;SDS011;49136;47.416;19.402;2023-04-03T15:27:57;1.48;;;1.20;;
63050;SDS011;49136;47.416;19.402;2023-04-03T15:30:23;6.57;;;2.22;;
63050;SDS011;49136;47.416;19.402;2023-04-03T15:32:48;1.52;;;1.00;;
63050;SDS011;49136;47.416;19.402;2023-04-03T15:35:15;3.75;;;1.58;;
63050;SDS011;49136;47.416;19.402;2023-04-03T15:37:40;7.72;;;2.65;;
63050;SDS011;49136;47.416;19.402;2023-04-03T15:40:06;7.60;;;3.75;;
63050;SDS011;49136;47.416;19.402;2023-04-03T15:42:32;7.65;;;4.45;;
63050;SDS011;49136;47.416;19.402;2023-04-03T15:44:58;12.02;;;4.68;;
63050;SDS011;49136;47.416;19.402;2023-04-03T15:47:24;10.95;;;4.18;;
63050;SDS011;49136;47.416;19.402;2023-04-03T15:49:51;21.40;;;7.43;;
63050;SDS011;49136;47.416;19.402;2023-04-03T15:52:17;7.75;;;3.20;;
63050;SDS011;49136;47.416;19.402;2023-04-03T15:54:42;11.27;;;3.42;;
63050;SDS011;49136;47.416;19.402;2023-04-03T15:57:08;9.23;;;3.30;;
63050;SDS011;49136;47.416;19.402;2023-04-03T15:59:33;6.05;;;2.42;;
63050;SDS011;49136;47.416;19.402;2023-04-03T16:01:59;8.25;;;3.30;;
63050;SDS011;49136;47.416;19.402;2023-04-03T16:04:26;8.10;;;3.38;;
63050;SDS011;49136;47.416;19.402;2023-04-03T16:06:52;8.10;;;1.75;;
63050;SDS011;49136;47.416;19.402;2023-04-03T16:09:18;2.50;;;1.33;;
63050;SDS011;49136;47.416;19.402;2023-04-03T16:11:43;5.68;;;2.97;;
63050;SDS011;49136;47.416;19.402;2023-04-03T16:14:09;2.35;;;1.45;;
63050;SDS011;49136;47.416;19.402;2023-04-03T16:16:35;5.60;;;1.48;;
63050;SDS011;49136;47.416;19.402;2023-04-03T16:19:01;4.35;;;1.70;;
63050;SDS011;49136;47.416;19.402;2023-04-03T16:21:27;1.27;;;1.17;;
63050;SDS011;49136;47.416;19.402;2023-04-03T16:23:53;7.95;;;2.70;;
63050;SDS011;49136;47.416;19.402;2023-04-03T16:26:18;11.63;;;2.22;;
63050;SDS011;49136;47.416;19.402;2023-04-03T16:28:45;9.75;;;3.08;;
63050;SDS011;49136;47.416;19.402;2023-04-03T16:31:10;9.15;;;2.85;;